sensor_id;sensor_type;location;lat;lon;timestamp;temperature;humidity
2162;DHT22;1087;50.226;8.682;2023-04-03T00:01:01;7.60;99.90
2162;DHT22;1087;50.226;8.682;2023-04-03T00:03:27;7.60;99.90
2162;DHT22;1087;50.226;8.682;2023-04-03T00:05:53;7.70;99.90
2162;DHT22;1087;50.226;8.682;2023-04-03T00:08:19;7.50;99.90
2162;DHT22;1087;50.226;8.682;2023-04-03T00:10:45;7.60;99.90
2162;DHT22;1087;50.226;8.682;2023-04-03T00:13:10;7.60;99.90
2162;DHT22;1087;50.226;8.682;2023-04-03T00:15:37;7.60;99.90
2162;DHT22;1087;50.226;8.682;2023-04-03T00:18:03;7.60;99.90
2162;DHT22;1087;50.226;8.682;2023-04-03T00:20:29;7.50;99.90
2162;DHT22;1087;50.226;8.682;2023-04-03T00:22:54;7.30;99.90
2162;DHT22;1087;50.226;8.682;2023-04-03T00:25:20;7.40;99.90
2162;DHT22;1087;50.226;8.682;2023-04-03T00:27:46;7.40;99.90
2162;DHT22;1087;50.226;8.682;2023-04-03T00:30:14;7.40;99.90
2162;DHT22;1087;50.226;8.682;2023-04-03T00:32:40;7.50;99.90
2162;DHT22;1087;50.226;8.682;2023-04-03T00:35:06;7.50;99.90
2162;DHT22;1087;50.226;8.682;2023-04-03T00:37:32;7.40;99.90
2162;DHT22;1087;50.226;8.682;2023-04-03T00:39:58;7.60;99.90
2162;DHT22;1087;50.226;8.682;2023-04-03T00:42:24;7.50;99.90
2162;DHT22;1087;50.226;8.682;2023-04-03T00:47:18;7.50;99.90
2162;DHT22;1087;50.226;8.682;2023-04-03T00:49:44;7.40;99.90
2162;DHT22;1087;50.226;8.682;2023-04-03T00:52:14;7.40;99.90
2162;DHT22;1087;50.226;8.682;2023-04-03T00:54:42;7.40;99.90
2162;DHT22;1087;50.226;8.682;2023-04-03T00:57:09;7.40;99.90
2162;DHT22;1087;50.226;8.682;2023-04-03T00:59:39;7.50;99.90
2162;DHT22;1087;50.226;8.682;2023-04-03T01:02:07;7.50;99.90
2162;DHT22;1087;50.226;8.682;2023-04-03T01:04:42;7.60;99.90
2162;DHT22;1087;50.226;8.682;2023-04-03T01:07:17;7.70;99.90
2162;DHT22;1087;50.226;8.682;2023-04-03T01:09:44;7.70;99.90
2162;DHT22;1087;50.226;8.682;2023-04-03T01:12:26;7.80;99.90
2162;DHT22;1087;50.226;8.682;2023-04-03T01:14:55;7.80;99.90
2162;DHT22;1087;50.226;8.682;2023-04-03T01:17:45;7.80;99.90
2162;DHT22;1087;50.226;8.682;2023-04-03T01:20:22;7.90;99.90
2162;DHT22;1087;50.226;8.682;2023-04-03T01:25:24;8.00;99.90
2162;DHT22;1087;50.226;8.682;2023-04-03T01:27:50;8.00;99.90
2162;DHT22;1087;50.226;8.682;2023-04-03T01:30:19;8.00;99.90
2162;DHT22;1087;50.226;8.682;2023-04-03T01:32:45;7.90;99.90
2162;DHT22;1087;50.226;8.682;2023-04-03T01:35:11;7.90;99.90
2162;DHT22;1087;50.226;8.682;2023-04-03T01:37:37;7.70;99.90
2162;DHT22;1087;50.226;8.682;2023-04-03T01:40:03;7.70;99.90
2162;DHT22;1087;50.226;8.682;2023-04-03T01:42:29;7.60;99.90
2162;DHT22;1087;50.226;8.682;2023-04-03T01:44:55;7.60;99.90
2162;DHT22;1087;50.226;8.682;2023-04-03T01:47:21;7.60;99.90
2162;DHT22;1087;50.226;8.682;2023-04-03T01:49:47;7.50;99.90
2162;DHT22;1087;50.226;8.682;2023-04-03T01:52:13;7.60;99.90
2162;DHT22;1087;50.226;8.682;2023-04-03T01:54:38;7.60;99.90
2162;DHT22;1087;50.226;8.682;2023-04-03T01:57:04;7.60;99.90
2162;DHT22;1087;50.226;8.682;2023-04-03T01:59:30;7.60;99.90
2162;DHT22;1087;50.226;8.682;2023-04-03T02:01:55;7.60;99.90
2162;DHT22;1087;50.226;8.682;2023-04-03T02:04:21;7.60;99.90
2162;DHT22;1087;50.226;8.682;2023-04-03T02:06:46;7.50;99.90
2162;DHT22;1087;50.226;8.682;2023-04-03T02:09:12;7.50;99.90
2162;DHT22;1087;50.226;8.682;2023-04-03T02:11:37;7.50;99.90
2162;DHT22;1087;50.226;8.682;2023-04-03T02:14:03;7.40;99.90
2162;DHT22;1087;50.226;8.682;2023-04-03T02:16:29;7.40;99.90
2162;DHT22;1087;50.226;8.682;2023-04-03T02:18:56;7.50;99.90
2162;DHT22;1087;50.226;8.682;2023-04-03T02:21:21;7.40;99.90
2162;DHT22;1087;50.226;8.682;2023-04-03T02:23:47;7.40;99.90
2162;DHT22;1087;50.226;8.682;2023-04-03T02:26:14;7.40;99.90
2162;DHT22;1087;50.226;8.682;2023-04-03T02:28:40;7.40;99.90
2162;DHT22;1087;50.226;8.682;2023-04-03T02:31:08;7.30;99.90
2162;DHT22;1087;50.226;8.682;2023-04-03T02:33:34;7.20;99.90
2162;DHT22;1087;50.226;8.682;2023-04-03T02:36:02;7.10;99.90
2162;DHT22;1087;50.226;8.682;2023-04-03T02:38:28;7.10;99.90
2162;DHT22;1087;50.226;8.682;2023-04-03T02:40:59;7.00;99.90
2162;DHT22;1087;50.226;8.682;2023-04-03T02:43:24;7.10;99.90
2162;DHT22;1087;50.226;8.682;2023-04-03T02:45:50;7.00;99.90
2162;DHT22;1087;50.226;8.682;2023-04-03T02:48:15;7.00;99.90
2162;DHT22;1087;50.226;8.682;2023-04-03T02:50:41;6.90;99.90
2162;DHT22;1087;50.226;8.682;2023-04-03T02:53:07;6.80;99.90
2162;DHT22;1087;50.226;8.682;2023-04-03T02:55:32;6.70;99.90
2162;DHT22;1087;50.226;8.682;2023-04-03T02:57:58;6.50;99.90
2162;DHT22;1087;50.226;8.682;2023-04-03T03:00:24;6.50;99.90
2162;DHT22;1087;50.226;8.682;2023-04-03T03:02:49;6.50;99.90
2162;DHT22;1087;50.226;8.682;2023-04-03T03:05:15;6.40;99.90
2162;DHT22;1087;50.226;8.682;2023-04-03T03:07:40;6.40;99.90
2162;DHT22;1087;50.226;8.682;2023-04-03T03:10:06;6.50;99.90
2162;DHT22;1087;50.226;8.682;2023-04-03T03:12:32;6.30;99.90
2162;DHT22;1087;50.226;8.682;2023-04-03T03:14:57;6.30;99.90
2162;DHT22;1087;50.226;8.682;2023-04-03T03:17:23;6.20;99.90
2162;DHT22;1087;50.226;8.682;2023-04-03T03:19:48;6.20;99.90
2162;DHT22;1087;50.226;8.682;2023-04-03T03:22:15;6.20;99.90
2162;DHT22;1087;50.226;8.682;2023-04-03T03:24:41;6.20;99.90
2162;DHT22;1087;50.226;8.682;2023-04-03T03:27:06;6.30;99.90
2162;DHT22;1087;50.226;8.682;2023-04-03T03:29:32;6.20;99.90
2162;DHT22;1087;50.226;8.682;2023-04-03T03:31:57;6.20;99.90
2162;DHT22;1087;50.226;8.682;2023-04-03T03:34:23;6.00;99.90
2162;DHT22;1087;50.226;8.682;2023-04-03T03:36:48;6.10;99.90
2162;DHT22;1087;50.226;8.682;2023-04-03T03:39:14;6.00;99.90
2162;DHT22;1087;50.226;8.682;2023-04-03T03:41:40;6.00;99.90
2162;DHT22;1087;50.226;8.682;2023-04-03T03:44:06;6.00;99.90
2162;DHT22;1087;50.226;8.682;2023-04-03T03:46:31;6.00;99.90
2162;DHT22;1087;50.226;8.682;2023-04-03T03:48:57;6.10;99.90
2162;DHT22;1087;50.226;8.682;2023-04-03T03:51:22;6.10;99.90
2162;DHT22;1087;50.226;8.682;2023-04-03T03:53:48;6.10;99.90
2162;DHT22;1087;50.226;8.682;2023-04-03T03:56:13;6.20;99.90
2162;DHT22;1087;50.226;8.682;2023-04-03T03:58:39;6.10;99.90
2162;DHT22;1087;50.226;8.682;2023-04-03T04:01:06;6.20;99.90
2162;DHT22;1087;50.226;8.682;2023-04-03T04:03:32;6.10;99.90
2162;DHT22;1087;50.226;8.682;2023-04-03T04:05:58;6.20;99.90
2162;DHT22;1087;50.226;8.682;2023-04-03T04:08:24;6.20;99.90
2162;DHT22;1087;50.226;8.682;2023-04-03T04:10:50;6.20;99.90
2162;DHT22;1087;50.226;8.682;2023-04-03T04:13:15;6.20;99.90
2162;DHT22;1087;50.226;8.682;2023-04-03T04:15:42;6.20;99.90
2162;DHT22;1087;50.226;8.682;2023-04-03T04:18:08;6.20;99.90
2162;DHT22;1087;50.226;8.682;2023-04-03T04:20:33;6.10;99.90
2162;DHT22;1087;50.226;8.682;2023-04-03T04:22:59;6.10;99.90
2162;DHT22;1087;50.226;8.682;2023-04-03T04:25:24;6.10;99.90
2162;DHT22;1087;50.226;8.682;2023-04-03T04:27:50;6.10;99.90
2162;DHT22;1087;50.226;8.682;2023-04-03T04:30:15;6.10;99.90
2162;DHT22;1087;50.226;8.682;2023-04-03T04:32:41;6.10;99.90
2162;DHT22;1087;50.226;8.682;2023-04-03T04:35:07;6.00;99.90
2162;DHT22;1087;50.226;8.682;2023-04-03T04:37:32;5.90;99.90
2162;DHT22;1087;50.226;8.682;2023-04-03T04:39:58;5.80;99.90
2162;DHT22;1087;50.226;8.682;2023-04-03T04:42:23;5.80;99.90
2162;DHT22;1087;50.226;8.682;2023-04-03T04:44:49;5.80;99.90
2162;DHT22;1087;50.226;8.682;2023-04-03T04:47:15;5.80;99.90
2162;DHT22;1087;50.226;8.682;2023-04-03T04:49:41;5.80;99.90
2162;DHT22;1087;50.226;8.682;2023-04-03T04:52:06;5.90;99.90
2162;DHT22;1087;50.226;8.682;2023-04-03T04:54:32;5.90;99.90
2162;DHT22;1087;50.226;8.682;2023-04-03T04:56:57;5.80;99.90
2162;DHT22;1087;50.226;8.682;2023-04-03T04:59:23;5.90;99.90
2162;DHT22;1087;50.226;8.682;2023-04-03T05:01:48;6.10;99.90
2162;DHT22;1087;50.226;8.682;2023-04-03T05:04:14;6.10;99.90
2162;DHT22;1087;50.226;8.682;2023-04-03T05:06:40;6.10;99.90
2162;DHT22;1087;50.226;8.682;2023-04-03T05:09:06;6.20;99.90
2162;DHT22;1087;50.226;8.682;2023-04-03T05:11:32;6.20;99.90
2162;DHT22;1087;50.226;8.682;2023-04-03T05:13:57;6.10;99.90
2162;DHT22;1087;50.226;8.682;2023-04-03T05:16:23;6.00;99.90
2162;DHT22;1087;50.226;8.682;2023-04-03T05:18:48;6.00;99.90
2162;DHT22;1087;50.226;8.682;2023-04-03T05:21:14;5.70;99.90
2162;DHT22;1087;50.226;8.682;2023-04-03T05:23:40;5.70;99.90
2162;DHT22;1087;50.226;8.682;2023-04-03T05:26:05;5.60;99.90
2162;DHT22;1087;50.226;8.682;2023-04-03T05:28:31;5.60;99.90
2162;DHT22;1087;50.226;8.682;2023-04-03T05:30:58;5.60;99.90
2162;DHT22;1087;50.226;8.682;2023-04-03T05:33:24;5.50;99.90
2162;DHT22;1087;50.226;8.682;2023-04-03T05:35:50;5.50;99.90
2162;DHT22;1087;50.226;8.682;2023-04-03T05:38:15;5.40;99.90
2162;DHT22;1087;50.226;8.682;2023-04-03T05:40:41;5.40;99.90
2162;DHT22;1087;50.226;8.682;2023-04-03T05:43:06;5.40;99.90
2162;DHT22;1087;50.226;8.682;2023-04-03T05:45:32;5.30;99.90
2162;DHT22;1087;50.226;8.682;2023-04-03T05:47:57;5.40;99.90
2162;DHT22;1087;50.226;8.682;2023-04-03T05:50:23;5.30;99.90
2162;DHT22;1087;50.226;8.682;2023-04-03T05:52:49;5.40;99.90
2162;DHT22;1087;50.226;8.682;2023-04-03T05:55:16;5.50;99.90
2162;DHT22;1087;50.226;8.682;2023-04-03T05:57:41;5.40;99.90
2162;DHT22;1087;50.226;8.682;2023-04-03T06:00:08;5.50;99.90
2162;DHT22;1087;50.226;8.682;2023-04-03T06:02:35;5.60;99.90
2162;DHT22;1087;50.226;8.682;2023-04-03T06:05:01;5.60;99.90
2162;DHT22;1087;50.226;8.682;2023-04-03T06:07:27;5.50;99.90
2162;DHT22;1087;50.226;8.682;2023-04-03T06:09:55;5.30;99.90
2162;DHT22;1087;50.226;8.682;2023-04-03T06:12:22;5.30;99.90
2162;DHT22;1087;50.226;8.682;2023-04-03T06:14:48;5.10;99.90
2162;DHT22;1087;50.226;8.682;2023-04-03T06:17:14;5.20;99.90
2162;DHT22;1087;50.226;8.682;2023-04-03T06:19:40;5.00;99.90
2162;DHT22;1087;50.226;8.682;2023-04-03T06:22:06;4.80;99.90
2162;DHT22;1087;50.226;8.682;2023-04-03T06:24:32;5.00;99.90
2162;DHT22;1087;50.226;8.682;2023-04-03T06:26:58;4.90;99.90
2162;DHT22;1087;50.226;8.682;2023-04-03T06:29:24;4.80;99.90
2162;DHT22;1087;50.226;8.682;2023-04-03T06:31:50;4.90;99.90
2162;DHT22;1087;50.226;8.682;2023-04-03T06:34:16;4.80;99.90
2162;DHT22;1087;50.226;8.682;2023-04-03T06:36:42;4.90;99.90
2162;DHT22;1087;50.226;8.682;2023-04-03T06:39:16;4.80;99.90
2162;DHT22;1087;50.226;8.682;2023-04-03T06:41:42;4.80;99.90
2162;DHT22;1087;50.226;8.682;2023-04-03T06:44:08;4.90;99.90
2162;DHT22;1087;50.226;8.682;2023-04-03T06:46:36;4.90;99.90
2162;DHT22;1087;50.226;8.682;2023-04-03T06:49:02;5.00;99.90
2162;DHT22;1087;50.226;8.682;2023-04-03T06:51:29;5.00;99.90
2162;DHT22;1087;50.226;8.682;2023-04-03T06:53:56;5.00;99.90
2162;DHT22;1087;50.226;8.682;2023-04-03T06:56:22;5.10;99.90
2162;DHT22;1087;50.226;8.682;2023-04-03T06:58:48;5.30;99.90
2162;DHT22;1087;50.226;8.682;2023-04-03T07:01:16;5.10;99.90
2162;DHT22;1087;50.226;8.682;2023-04-03T07:03:43;4.80;99.90
2162;DHT22;1087;50.226;8.682;2023-04-03T07:06:11;5.10;99.90
2162;DHT22;1087;50.226;8.682;2023-04-03T07:08:38;5.30;99.90
2162;DHT22;1087;50.226;8.682;2023-04-03T07:11:04;5.20;99.90
2162;DHT22;1087;50.226;8.682;2023-04-03T07:13:30;5.10;99.90
2162;DHT22;1087;50.226;8.682;2023-04-03T07:15:56;5.20;99.90
2162;DHT22;1087;50.226;8.682;2023-04-03T07:18:22;5.00;99.90
2162;DHT22;1087;50.226;8.682;2023-04-03T07:20:48;5.10;99.90
2162;DHT22;1087;50.226;8.682;2023-04-03T07:23:14;5.30;99.90
2162;DHT22;1087;50.226;8.682;2023-04-03T07:25:47;5.40;99.90
2162;DHT22;1087;50.226;8.682;2023-04-03T07:28:13;5.40;99.90
2162;DHT22;1087;50.226;8.682;2023-04-03T07:30:47;5.50;99.90
2162;DHT22;1087;50.226;8.682;2023-04-03T07:33:15;5.50;99.90
2162;DHT22;1087;50.226;8.682;2023-04-03T07:35:41;5.60;99.90
2162;DHT22;1087;50.226;8.682;2023-04-03T07:38:08;5.70;99.90
2162;DHT22;1087;50.226;8.682;2023-04-03T07:40:34;5.70;99.90
2162;DHT22;1087;50.226;8.682;2023-04-03T07:43:00;5.80;99.90
2162;DHT22;1087;50.226;8.682;2023-04-03T07:45:26;5.70;99.90
2162;DHT22;1087;50.226;8.682;2023-04-03T07:47:51;5.80;99.90
2162;DHT22;1087;50.226;8.682;2023-04-03T07:50:18;5.80;99.90
2162;DHT22;1087;50.226;8.682;2023-04-03T07:52:44;5.90;99.90
2162;DHT22;1087;50.226;8.682;2023-04-03T07:55:11;5.90;99.90
2162;DHT22;1087;50.226;8.682;2023-04-03T07:57:36;5.80;99.90
2162;DHT22;1087;50.226;8.682;2023-04-03T08:00:03;5.80;99.90
2162;DHT22;1087;50.226;8.682;2023-04-03T08:02:30;5.90;99.90
2162;DHT22;1087;50.226;8.682;2023-04-03T08:04:59;6.00;99.90
2162;DHT22;1087;50.226;8.682;2023-04-03T08:07:25;6.00;99.90
2162;DHT22;1087;50.226;8.682;2023-04-03T08:09:51;5.80;99.90
2162;DHT22;1087;50.226;8.682;2023-04-03T08:12:17;6.00;99.90
2162;DHT22;1087;50.226;8.682;2023-04-03T08:14:42;6.00;99.90
2162;DHT22;1087;50.226;8.682;2023-04-03T08:17:08;6.00;99.90
2162;DHT22;1087;50.226;8.682;2023-04-03T08:19:37;6.10;99.90
2162;DHT22;1087;50.226;8.682;2023-04-03T08:22:03;6.10;99.90
2162;DHT22;1087;50.226;8.682;2023-04-03T08:24:30;6.20;99.90
2162;DHT22;1087;50.226;8.682;2023-04-03T08:26:56;6.00;99.90
2162;DHT22;1087;50.226;8.682;2023-04-03T08:29:21;6.10;99.90
2162;DHT22;1087;50.226;8.682;2023-04-03T08:31:47;6.20;99.90
2162;DHT22;1087;50.226;8.682;2023-04-03T08:34:14;6.20;99.90
2162;DHT22;1087;50.226;8.682;2023-04-03T08:36:40;6.20;99.90
2162;DHT22;1087;50.226;8.682;2023-04-03T08:39:06;6.30;99.90
2162;DHT22;1087;50.226;8.682;2023-04-03T08:41:34;6.30;99.90
2162;DHT22;1087;50.226;8.682;2023-04-03T08:46:40;6.40;99.90
2162;DHT22;1087;50.226;8.682;2023-04-03T08:49:17;6.50;99.90
2162;DHT22;1087;50.226;8.682;2023-04-03T08:51:47;6.60;99.90
2162;DHT22;1087;50.226;8.682;2023-04-03T08:54:27;6.60;99.90
2162;DHT22;1087;50.226;8.682;2023-04-03T08:56:54;6.50;99.90
2162;DHT22;1087;50.226;8.682;2023-04-03T08:59:29;6.60;99.90
2162;DHT22;1087;50.226;8.682;2023-04-03T09:01:57;6.60;99.90
2162;DHT22;1087;50.226;8.682;2023-04-03T09:04:26;6.50;99.90
2162;DHT22;1087;50.226;8.682;2023-04-03T09:06:55;6.50;99.90
2162;DHT22;1087;50.226;8.682;2023-04-03T09:09:41;6.40;99.90
2162;DHT22;1087;50.226;8.682;2023-04-03T09:12:26;6.40;99.90
2162;DHT22;1087;50.226;8.682;2023-04-03T09:22:41;6.40;99.90
2162;DHT22;1087;50.226;8.682;2023-04-03T09:25:13;6.50;99.90
2162;DHT22;1087;50.226;8.682;2023-04-03T09:27:39;6.70;99.90
2162;DHT22;1087;50.226;8.682;2023-04-03T09:30:05;6.90;99.90
2162;DHT22;1087;50.226;8.682;2023-04-03T09:32:35;6.70;99.90
2162;DHT22;1087;50.226;8.682;2023-04-03T09:35:17;6.80;99.90
2162;DHT22;1087;50.226;8.682;2023-04-03T09:37:49;6.80;99.90
2162;DHT22;1087;50.226;8.682;2023-04-03T09:42:57;7.10;99.90
2162;DHT22;1087;50.226;8.682;2023-04-03T09:45:26;7.20;99.90
2162;DHT22;1087;50.226;8.682;2023-04-03T09:48:15;7.10;99.90
2162;DHT22;1087;50.226;8.682;2023-04-03T09:53:45;6.90;99.90
2162;DHT22;1087;50.226;8.682;2023-04-03T09:58:44;7.00;99.90
2162;DHT22;1087;50.226;8.682;2023-04-03T10:01:31;7.20;99.90
2162;DHT22;1087;50.226;8.682;2023-04-03T10:04:09;7.40;99.90
2162;DHT22;1087;50.226;8.682;2023-04-03T10:06:40;7.40;99.90
2162;DHT22;1087;50.226;8.682;2023-04-03T10:09:34;7.10;99.90
2162;DHT22;1087;50.226;8.682;2023-04-03T10:14:37;7.10;99.90
2162;DHT22;1087;50.226;8.682;2023-04-03T10:19:52;7.30;99.90
2162;DHT22;1087;50.226;8.682;2023-04-03T10:22:42;7.50;99.90
2162;DHT22;1087;50.226;8.682;2023-04-03T10:25:36;7.50;99.90
2162;DHT22;1087;50.226;8.682;2023-04-03T10:28:20;7.50;99.90
2162;DHT22;1087;50.226;8.682;2023-04-03T10:31:03;7.60;99.90
2162;DHT22;1087;50.226;8.682;2023-04-03T10:34:03;7.50;99.90
2162;DHT22;1087;50.226;8.682;2023-04-03T10:39:19;7.70;99.90
2162;DHT22;1087;50.226;8.682;2023-04-03T10:42:06;7.90;99.90
2162;DHT22;1087;50.226;8.682;2023-04-03T10:50:04;7.70;99.90
2162;DHT22;1087;50.226;8.682;2023-04-03T10:53:01;7.80;99.90
2162;DHT22;1087;50.226;8.682;2023-04-03T10:55:43;7.90;99.90
2162;DHT22;1087;50.226;8.682;2023-04-03T10:58:20;7.90;99.90
2162;DHT22;1087;50.226;8.682;2023-04-03T11:00:48;7.80;99.90
2162;DHT22;1087;50.226;8.682;2023-04-03T11:03:40;8.00;99.90
2162;DHT22;1087;50.226;8.682;2023-04-03T11:06:11;8.00;99.90
2162;DHT22;1087;50.226;8.682;2023-04-03T11:09:07;8.00;99.90
2162;DHT22;1087;50.226;8.682;2023-04-03T11:11:39;8.10;99.90
2162;DHT22;1087;50.226;8.682;2023-04-03T11:14:24;8.10;99.90
2162;DHT22;1087;50.226;8.682;2023-04-03T11:22:37;8.10;99.90
2162;DHT22;1087;50.226;8.682;2023-04-03T11:30:13;8.10;99.90
2162;DHT22;1087;50.226;8.682;2023-04-03T11:32:59;8.10;99.90
2162;DHT22;1087;50.226;8.682;2023-04-03T11:35:27;8.20;99.90
2162;DHT22;1087;50.226;8.682;2023-04-03T11:37:54;8.20;99.90
2162;DHT22;1087;50.226;8.682;2023-04-03T11:40:26;8.30;99.90
2162;DHT22;1087;50.226;8.682;2023-04-03T11:43:06;8.20;99.90
2162;DHT22;1087;50.226;8.682;2023-04-03T11:50:46;8.30;99.90
2162;DHT22;1087;50.226;8.682;2023-04-03T11:58:17;8.20;99.90
2162;DHT22;1087;50.226;8.682;2023-04-03T12:00:59;8.30;99.90
2162;DHT22;1087;50.226;8.682;2023-04-03T12:05:58;8.50;99.90
2162;DHT22;1087;50.226;8.682;2023-04-03T12:16:30;8.60;99.90
2162;DHT22;1087;50.226;8.682;2023-04-03T12:19:02;8.70;99.90
2162;DHT22;1087;50.226;8.682;2023-04-03T12:29:43;8.80;99.90
2162;DHT22;1087;50.226;8.682;2023-04-03T12:35:04;8.80;99.90
2162;DHT22;1087;50.226;8.682;2023-04-03T12:45:56;8.90;99.90
2162;DHT22;1087;50.226;8.682;2023-04-03T12:48:27;8.90;99.90
2162;DHT22;1087;50.226;8.682;2023-04-03T12:50:53;9.00;99.90
2162;DHT22;1087;50.226;8.682;2023-04-03T12:53:23;9.10;99.90
2162;DHT22;1087;50.226;8.682;2023-04-03T12:58:44;9.00;99.90
2162;DHT22;1087;50.226;8.682;2023-04-03T13:01:12;9.10;99.90
2162;DHT22;1087;50.226;8.682;2023-04-03T13:03:42;9.20;99.90
2162;DHT22;1087;50.226;8.682;2023-04-03T13:06:17;9.10;99.90
2162;DHT22;1087;50.226;8.682;2023-04-03T13:08:54;9.10;99.90
2162;DHT22;1087;50.226;8.682;2023-04-03T13:11:24;9.20;99.90
2162;DHT22;1087;50.226;8.682;2023-04-03T13:14:23;9.30;99.90
2162;DHT22;1087;50.226;8.682;2023-04-03T13:17:06;9.20;99.90
2162;DHT22;1087;50.226;8.682;2023-04-03T13:19:35;9.10;99.90
2162;DHT22;1087;50.226;8.682;2023-04-03T13:22:04;9.10;99.90
2162;DHT22;1087;50.226;8.682;2023-04-03T13:24:33;9.10;99.90
2162;DHT22;1087;50.226;8.682;2023-04-03T13:27:01;9.30;99.90
2162;DHT22;1087;50.226;8.682;2023-04-03T13:29:30;9.30;99.90
2162;DHT22;1087;50.226;8.682;2023-04-03T13:31:57;9.30;99.90
2162;DHT22;1087;50.226;8.682;2023-04-03T13:34:26;9.30;99.90
2162;DHT22;1087;50.226;8.682;2023-04-03T13:41:48;9.30;99.90
2162;DHT22;1087;50.226;8.682;2023-04-03T13:46:42;9.40;99.90
2162;DHT22;1087;50.226;8.682;2023-04-03T13:49:38;9.30;99.90
2162;DHT22;1087;50.226;8.682;2023-04-03T13:52:31;9.30;99.90
2162;DHT22;1087;50.226;8.682;2023-04-03T13:55:14;9.50;99.90
2162;DHT22;1087;50.226;8.682;2023-04-03T14:00:31;9.50;99.90
2162;DHT22;1087;50.226;8.682;2023-04-03T14:02:57;9.60;99.90
2162;DHT22;1087;50.226;8.682;2023-04-03T14:05:24;9.50;99.90
2162;DHT22;1087;50.226;8.682;2023-04-03T14:07:51;9.50;99.90
2162;DHT22;1087;50.226;8.682;2023-04-03T14:10:17;9.40;99.90
2162;DHT22;1087;50.226;8.682;2023-04-03T14:12:43;9.40;99.90
2162;DHT22;1087;50.226;8.682;2023-04-03T14:15:20;9.50;99.90
2162;DHT22;1087;50.226;8.682;2023-04-03T14:17:46;9.20;99.90
2162;DHT22;1087;50.226;8.682;2023-04-03T14:20:20;9.40;99.90
2162;DHT22;1087;50.226;8.682;2023-04-03T14:22:47;9.30;99.90
2162;DHT22;1087;50.226;8.682;2023-04-03T14:25:12;9.40;99.90
2162;DHT22;1087;50.226;8.682;2023-04-03T14:27:44;9.40;99.90
2162;DHT22;1087;50.226;8.682;2023-04-03T14:30:27;9.60;99.90
2162;DHT22;1087;50.226;8.682;2023-04-03T14:32:53;9.60;99.90
2162;DHT22;1087;50.226;8.682;2023-04-03T14:35:19;9.50;99.90
2162;DHT22;1087;50.226;8.682;2023-04-03T14:37:46;9.60;99.90
2162;DHT22;1087;50.226;8.682;2023-04-03T14:40:17;9.60;99.90
2162;DHT22;1087;50.226;8.682;2023-04-03T14:42:43;9.60;99.90
2162;DHT22;1087;50.226;8.682;2023-04-03T14:45:11;9.60;99.90
2162;DHT22;1087;50.226;8.682;2023-04-03T14:47:42;9.60;99.90
2162;DHT22;1087;50.226;8.682;2023-04-03T14:50:16;9.70;99.90
2162;DHT22;1087;50.226;8.682;2023-04-03T14:52:42;9.70;99.90
2162;DHT22;1087;50.226;8.682;2023-04-03T14:55:18;9.80;99.90
2162;DHT22;1087;50.226;8.682;2023-04-03T14:57:44;9.80;99.90
2162;DHT22;1087;50.226;8.682;2023-04-03T15:00:16;9.70;99.90
2162;DHT22;1087;50.226;8.682;2023-04-03T15:02:43;9.70;99.90
2162;DHT22;1087;50.226;8.682;2023-04-03T15:05:10;9.70;99.90
2162;DHT22;1087;50.226;8.682;2023-04-03T15:07:39;9.60;99.90
2162;DHT22;1087;50.226;8.682;2023-04-03T15:10:20;9.70;99.90
2162;DHT22;1087;50.226;8.682;2023-04-03T15:12:47;9.60;99.90
2162;DHT22;1087;50.226;8.682;2023-04-03T15:15:14;9.50;99.90
2162;DHT22;1087;50.226;8.682;2023-04-03T15:17:41;9.50;99.90
2162;DHT22;1087;50.226;8.682;2023-04-03T15:20:26;9.50;99.90
2162;DHT22;1087;50.226;8.682;2023-04-03T15:22:53;9.50;99.90
2162;DHT22;1087;50.226;8.682;2023-04-03T15:25:19;9.40;99.90
2162;DHT22;1087;50.226;8.682;2023-04-03T15:27:45;9.40;99.90
2162;DHT22;1087;50.226;8.682;2023-04-03T15:30:17;9.50;99.90
2162;DHT22;1087;50.226;8.682;2023-04-03T15:32:42;9.50;99.90
2162;DHT22;1087;50.226;8.682;2023-04-03T15:35:08;9.60;99.90
2162;DHT22;1087;50.226;8.682;2023-04-03T15:37:34;9.50;99.90
2162;DHT22;1087;50.226;8.682;2023-04-03T15:39:59;9.40;99.90
2162;DHT22;1087;50.226;8.682;2023-04-03T15:42:25;9.50;99.90
2162;DHT22;1087;50.226;8.682;2023-04-03T15:44:50;9.50;99.90
2162;DHT22;1087;50.226;8.682;2023-04-03T15:47:16;9.40;99.90
2162;DHT22;1087;50.226;8.682;2023-04-03T15:49:42;9.40;99.90
2162;DHT22;1087;50.226;8.682;2023-04-03T15:52:07;9.40;99.90
2162;DHT22;1087;50.226;8.682;2023-04-03T15:54:33;9.40;99.90
2162;DHT22;1087;50.226;8.682;2023-04-03T15:56:58;9.40;99.90
2162;DHT22;1087;50.226;8.682;2023-04-03T15:59:24;9.40;99.90
2162;DHT22;1087;50.226;8.682;2023-04-03T16:01:50;9.40;99.90
2162;DHT22;1087;50.226;8.682;2023-04-03T16:04:17;9.40;99.90
2162;DHT22;1087;50.226;8.682;2023-04-03T16:06:43;9.40;99.90
2162;DHT22;1087;50.226;8.682;2023-04-03T16:09:09;9.30;99.90
2162;DHT22;1087;50.226;8.682;2023-04-03T16:11:36;9.30;99.90
2162;DHT22;1087;50.226;8.682;2023-04-03T16:14:04;9.40;99.90
2162;DHT22;1087;50.226;8.682;2023-04-03T16:16:31;9.30;99.90
2162;DHT22;1087;50.226;8.682;2023-04-03T16:18:57;9.20;99.90
2162;DHT22;1087;50.226;8.682;2023-04-03T16:21:22;9.20;99.90
2162;DHT22;1087;50.226;8.682;2023-04-03T16:23:48;9.10;99.90
2162;DHT22;1087;50.226;8.682;2023-04-03T16:26:14;9.10;99.90
2162;DHT22;1087;50.226;8.682;2023-04-03T16:28:40;9.10;99.90
2162;DHT22;1087;50.226;8.682;2023-04-03T16:31:07;9.00;99.90
2162;DHT22;1087;50.226;8.682;2023-04-03T16:33:33;9.00;99.90
2162;DHT22;1087;50.226;8.682;2023-04-03T16:35:59;9.00;99.90
2162;DHT22;1087;50.226;8.682;2023-04-03T16:38:24;8.90;99.90
2162;DHT22;1087;50.226;8.682;2023-04-03T16:40:50;8.90;99.90
2162;DHT22;1087;50.226;8.682;2023-04-03T16:43:17;9.00;99.90
2162;DHT22;1087;50.226;8.682;2023-04-03T16:45:43;8.90;99.90
2162;DHT22;1087;50.226;8.682;2023-04-03T16:48:08;8.90;99.90
2162;DHT22;1087;50.226;8.682;2023-04-03T16:50:34;8.70;99.90
2162;DHT22;1087;50.226;8.682;2023-04-03T16:53:00;8.70;99.90
2162;DHT22;1087;50.226;8.682;2023-04-03T16:55:28;8.70;99.90
2162;DHT22;1087;50.226;8.682;2023-04-03T16:57:53;8.70;99.90
2162;DHT22;1087;50.226;8.682;2023-04-03T17:00:19;8.70;99.90
2162;DHT22;1087;50.226;8.682;2023-04-03T17:02:45;8.70;99.90
2162;DHT22;1087;50.226;8.682;2023-04-03T17:05:10;8.60;99.90
2162;DHT22;1087;50.226;8.682;2023-04-03T17:07:36;8.70;99.90
2162;DHT22;1087;50.226;8.682;2023-04-03T17:10:02;8.80;99.90
2162;DHT22;1087;50.226;8.682;2023-04-03T17:12:27;8.70;99.90
2162;DHT22;1087;50.226;8.682;2023-04-03T17:14:53;8.60;99.90
2162;DHT22;1087;50.226;8.682;2023-04-03T17:17:22;8.40;99.90
2162;DHT22;1087;50.226;8.682;2023-04-03T17:19:48;8.40;99.90
2162;DHT22;1087;50.226;8.682;2023-04-03T17:22:14;8.40;99.90
2162;DHT22;1087;50.226;8.682;2023-04-03T17:24:41;8.30;99.90
2162;DHT22;1087;50.226;8.682;2023-04-03T17:27:07;8.40;99.90
2162;DHT22;1087;50.226;8.682;2023-04-03T17:29:32;8.40;99.90
2162;DHT22;1087;50.226;8.682;2023-04-03T17:31:58;8.20;99.90
2162;DHT22;1087;50.226;8.682;2023-04-03T17:34:24;8.30;99.90
2162;DHT22;1087;50.226;8.682;2023-04-03T17:36:49;8.30;99.90
2162;DHT22;1087;50.226;8.682;2023-04-03T17:39:15;8.40;99.90
2162;DHT22;1087;50.226;8.682;2023-04-03T17:41:41;8.40;99.90
2162;DHT22;1087;50.226;8.682;2023-04-03T17:44:07;8.40;99.90
2162;DHT22;1087;50.226;8.682;2023-04-03T17:46:32;8.30;99.90
2162;DHT22;1087;50.226;8.682;2023-04-03T17:48:58;8.20;99.90
2162;DHT22;1087;50.226;8.682;2023-04-03T17:51:24;8.10;99.90
2162;DHT22;1087;50.226;8.682;2023-04-03T17:53:50;8.00;99.90
2162;DHT22;1087;50.226;8.682;2023-04-03T17:56:21;7.90;99.90
2162;DHT22;1087;50.226;8.682;2023-04-03T17:58:47;7.80;99.90
2162;DHT22;1087;50.226;8.682;2023-04-03T18:01:19;7.70;99.90
2162;DHT22;1087;50.226;8.682;2023-04-03T18:03:46;7.80;99.90
2162;DHT22;1087;50.226;8.682;2023-04-03T18:06:15;7.80;99.90